Monte Negro, Brazil
Current Conditions -  °F | °C
As of 5:00 PM on Tuesday 21 Oct 2014 (Local Time) from SBPV Reporting Station
Thunderstorm Thunderstorm  
Wind Chill: 86°   Ceiling: Unl
Heat Index: 92°   Visibility: 6mi
Dew Point: 72°   Wind: 6mph
Humidity: 62%   Direction: 190°S
Pressure: 29.77"   Gusts: NA
Location:  10.29°S, 63.33°W
Report Text: SBPV 212100Z 19005KT 9999 TS FEW020 FEW023CB 30/22 Q1008
Loading
Personal Weather Stations






























Interactive Weather Map
Tropical Storm Tracking
New forecast layout! Learn more

10-Day Weather Forecast

Advertisements
Track Severe Weather on mobile